Time;durP1;ratioP1;P1;durP2;ratioP2;P2;SDS_P1;SDS_P2;PMS_P1;PMS_P2;Temp;Humidity;BMP_temperature;BMP_pressure;BME280_temperature;BME280_humidity;BME280_pressure;Samples;Min_cycle;Max_cycle;Signal;HPM_P1;HPM_P2
2023/06/27 00:01:52;;;;;;;4.38;2.80;;;;;;;;;;5025033;28;20042;-61
2023/06/27 00:04:19;;;;;;;8.77;2.83;;;;;;;;;;5025747;28;20337;-61
2023/06/27 00:06:46;;;;;;;3.35;2.42;;;;;;;;;;5038387;28;20468;-61
2023/06/27 00:09:12;;;;;;;6.65;2.60;;;;;;;;;;5028663;28;20033;-61
2023/06/27 00:11:39;;;;;;;9.38;3.42;;;;;;;;;;5030364;28;20060;-61
2023/06/27 00:14:08;;;;;;;4.25;3.33;;;;;;;;;;5027725;28;20051;-61
2023/06/27 00:16:34;;;;;;;5.47;2.35;;;;;;;;;;5019768;28;20047;-61
2023/06/27 00:19:04;;;;;;;4.70;2.53;;;;;;;;;;5043950;28;20051;-61
2023/06/27 00:21:31;;;;;;;6.55;2.75;;;;;;;;;;5023621;28;20131;-62
2023/06/27 00:23:58;;;;;;;6.93;2.97;;;;;;;;;;5029040;28;20654;-61
2023/06/27 00:26:25;;;;;;;6.53;3.10;;;;;;;;;;5024763;28;20080;-61
2023/06/27 00:28:51;;;;;;;7.88;2.97;;;;;;;;;;5026861;28;20049;-61
2023/06/27 00:31:17;;;;;;;5.60;2.90;;;;;;;;;;5022669;28;20120;-61
2023/06/27 00:33:43;;;;;;;6.03;3.22;;;;;;;;;;5032796;28;20041;-61
2023/06/27 00:36:09;;;;;;;6.13;3.45;;;;;;;;;;5027909;28;20124;-61
2023/06/27 00:38:36;;;;;;;6.90;3.78;;;;;;;;;;5025802;28;20033;-61
2023/06/27 00:41:02;;;;;;;5.75;3.25;;;;;;;;;;5031281;28;20136;-60
2023/06/27 00:43:28;;;;;;;5.65;2.58;;;;;;;;;;5016390;28;20503;-61
2023/06/27 00:45:55;;;;;;;10.23;2.92;;;;;;;;;;5020343;28;20104;-61
2023/06/27 00:48:21;;;;;;;6.97;2.92;;;;;;;;;;5020384;28;20337;-61
2023/06/27 00:50:49;;;;;;;3.92;2.67;;;;;;;;;;5030355;28;20033;-61
2023/06/27 00:53:15;;;;;;;4.60;2.78;;;;;;;;;;5020277;28;20045;-61
2023/06/27 00:55:41;;;;;;;5.53;3.17;;;;;;;;;;5018656;28;20034;-61
2023/06/27 00:58:10;;;;;;;4.30;2.70;;;;;;;;;;5020675;28;20045;-61
2023/06/27 01:00:37;;;;;;;3.88;2.85;;;;;;;;;;5021664;28;20126;-60
2023/06/27 01:03:03;;;;;;;6.82;3.55;;;;;;;;;;5021509;28;20128;-60
2023/06/27 01:05:30;;;;;;;4.47;2.88;;;;;;;;;;5023068;28;20062;-61
2023/06/27 01:08:21;;;;;;;4.65;3.03;;;;;;;;;;5026963;28;20041;-61
2023/06/27 01:10:53;;;;;;;5.05;2.50;;;;;;;;;;5025766;28;20503;-61
2023/06/27 01:13:23;;;;;;;9.55;3.00;;;;;;;;;;5026580;28;20049;-61
2023/06/27 01:15:49;;;;;;;5.80;2.75;;;;;;;;;;5034196;28;20037;-60
2023/06/27 01:18:15;;;;;;;5.03;2.60;;;;;;;;;;5035249;28;20081;-61
2023/06/27 01:20:45;;;;;;;5.25;3.03;;;;;;;;;;5030315;28;20406;-61
2023/06/27 01:23:14;;;;;;;7.72;2.60;;;;;;;;;;5028308;28;20087;-61
2023/06/27 01:25:40;;;;;;;5.57;2.90;;;;;;;;;;5029670;28;20399;-61
2023/06/27 01:28:07;;;;;;;5.53;2.72;;;;;;;;;;5027997;28;20053;-62
2023/06/27 01:30:36;;;;;;;3.30;2.40;;;;;;;;;;5026583;28;20045;-61
2023/06/27 01:33:07;;;;;;;3.85;2.03;;;;;;;;;;5027658;28;20076;-61
2023/06/27 01:35:52;;;;;;;5.90;2.97;;;;;;;;;;5027615;28;20629;-61
2023/06/27 01:38:21;;;;;;;3.90;2.35;;;;;;;;;;5023322;28;20033;-60
2023/06/27 01:40:48;;;;;;;3.45;2.22;;;;;;;;;;5018805;28;20042;-61
2023/06/27 01:43:14;;;;;;;5.78;2.63;;;;;;;;;;5028279;28;20071;-61
2023/06/27 01:45:41;;;;;;;4.35;2.50;;;;;;;;;;5026393;28;20558;-61
2023/06/27 01:48:08;;;;;;;6.20;2.47;;;;;;;;;;5026786;28;20052;-61
2023/06/27 01:50:35;;;;;;;3.08;2.17;;;;;;;;;;5018785;28;20038;-61
2023/06/27 01:53:01;;;;;;;9.77;3.33;;;;;;;;;;5024153;28;20037;-60
2023/06/27 01:55:27;;;;;;;4.78;2.30;;;;;;;;;;5017176;28;20527;-61
2023/06/27 01:57:53;;;;;;;5.55;2.38;;;;;;;;;;5033975;28;20499;-61
2023/06/27 02:00:19;;;;;;;8.27;2.53;;;;;;;;;;5025564;28;20126;-60
2023/06/27 02:02:45;;;;;;;5.53;2.53;;;;;;;;;;5032116;28;20037;-60
2023/06/27 02:05:11;;;;;;;4.80;2.50;;;;;;;;;;5034000;28;20041;-61
2023/06/27 02:07:38;;;;;;;2.63;2.22;;;;;;;;;;5029446;28;20053;-61
2023/06/27 02:10:04;;;;;;;3.10;2.15;;;;;;;;;;5023286;28;20038;-61
2023/06/27 02:12:30;;;;;;;3.65;2.20;;;;;;;;;;5038605;28;20482;-61
2023/06/27 02:14:56;;;;;;;4.22;2.20;;;;;;;;;;5025546;28;20057;-61
2023/06/27 02:17:22;;;;;;;3.00;2.08;;;;;;;;;;5026094;28;20136;-60
2023/06/27 02:19:48;;;;;;;5.63;2.55;;;;;;;;;;5026856;28;20059;-61
2023/06/27 02:22:14;;;;;;;4.55;2.30;;;;;;;;;;5025312;28;20034;-61
2023/06/27 02:24:40;;;;;;;8.20;2.53;;;;;;;;;;5025151;28;21136;-61
2023/06/27 02:27:07;;;;;;;3.20;2.00;;;;;;;;;;5032911;28;20037;-61
2023/06/27 02:29:33;;;;;;;3.20;2.13;;;;;;;;;;5022736;28;20037;-60
2023/06/27 02:31:59;;;;;;;6.05;2.10;;;;;;;;;;5022763;28;20033;-61
2023/06/27 02:34:25;;;;;;;6.05;2.67;;;;;;;;;;5024695;28;20260;-60
2023/06/27 02:36:51;;;;;;;7.20;2.50;;;;;;;;;;5026192;28;20507;-60
2023/06/27 02:39:17;;;;;;;3.35;1.90;;;;;;;;;;5016676;28;20436;-61
2023/06/27 02:41:43;;;;;;;6.32;2.08;;;;;;;;;;5017497;28;20571;-61
2023/06/27 02:44:09;;;;;;;2.83;1.80;;;;;;;;;;5023390;28;20048;-60
2023/06/27 02:46:36;;;;;;;6.53;2.70;;;;;;;;;;5019219;28;20120;-61
2023/06/27 02:49:02;;;;;;;3.45;2.13;;;;;;;;;;5028870;28;20118;-61
2023/06/27 02:51:28;;;;;;;6.13;2.33;;;;;;;;;;5018611;28;20442;-60
2023/06/27 02:53:54;;;;;;;3.45;1.98;;;;;;;;;;5027512;28;20038;-61
2023/06/27 02:56:20;;;;;;;4.82;2.15;;;;;;;;;;5025567;28;20044;-60
2023/06/27 02:58:46;;;;;;;5.97;2.28;;;;;;;;;;5021966;28;20049;-60
2023/06/27 03:01:13;;;;;;;3.00;1.80;;;;;;;;;;5023706;28;20121;-60
2023/06/27 03:03:39;;;;;;;7.15;2.85;;;;;;;;;;5022169;28;20044;-60
2023/06/27 03:06:09;;;;;;;3.40;2.05;;;;;;;;;;5020728;28;20049;-61
2023/06/27 03:08:37;;;;;;;5.78;1.98;;;;;;;;;;5020734;28;20124;-61
2023/06/27 03:11:04;;;;;;;4.38;2.08;;;;;;;;;;5026181;28;20228;-61
2023/06/27 03:13:30;;;;;;;3.92;2.38;;;;;;;;;;5021951;28;20049;-61
2023/06/27 03:15:56;;;;;;;5.03;1.98;;;;;;;;;;5022796;28;20118;-60
2023/06/27 03:18:22;;;;;;;3.13;2.13;;;;;;;;;;5027345;28;20075;-60
2023/06/27 03:20:48;;;;;;;4.60;2.17;;;;;;;;;;5020327;28;20088;-60
2023/06/27 03:23:14;;;;;;;3.25;1.67;;;;;;;;;;5026629;28;20435;-60
2023/06/27 03:25:40;;;;;;;3.83;1.88;;;;;;;;;;5024833;28;20399;-60
2023/06/27 03:28:06;;;;;;;2.90;1.80;;;;;;;;;;5025946;28;20033;-60
2023/06/27 03:30:33;;;;;;;7.65;2.83;;;;;;;;;;5020019;28;20341;-60
2023/06/27 03:32:59;;;;;;;6.82;1.80;;;;;;;;;;5018704;28;20036;-60
2023/06/27 03:35:25;;;;;;;4.57;1.95;;;;;;;;;;5029656;28;20069;-60
2023/06/27 03:37:51;;;;;;;3.13;1.92;;;;;;;;;;5024375;28;20127;-60
2023/06/27 03:40:18;;;;;;;4.85;1.65;;;;;;;;;;5022258;28;20045;-60
2023/06/27 03:42:44;;;;;;;7.45;2.30;;;;;;;;;;5018075;28;20059;-60
2023/06/27 03:45:10;;;;;;;3.83;2.00;;;;;;;;;;5022586;28;20060;-60
2023/06/27 03:47:38;;;;;;;3.33;1.95;;;;;;;;;;5023152;28;20111;-61
2023/06/27 03:50:04;;;;;;;4.20;1.92;;;;;;;;;;5025253;28;20041;-60
2023/06/27 03:52:30;;;;;;;4.28;2.05;;;;;;;;;;5022914;28;20463;-60
2023/06/27 03:54:56;;;;;;;2.25;1.85;;;;;;;;;;5024696;28;20077;-60
2023/06/27 03:57:22;;;;;;;5.10;2.35;;;;;;;;;;5025553;28;20106;-60
2023/06/27 03:59:49;;;;;;;6.03;1.70;;;;;;;;;;5026568;28;20215;-60
2023/06/27 04:02:15;;;;;;;3.10;1.77;;;;;;;;;;5028421;28;20486;-60
2023/06/27 04:04:41;;;;;;;5.43;2.00;;;;;;;;;;5025432;28;20383;-61
2023/06/27 04:07:07;;;;;;;3.90;1.80;;;;;;;;;;5024885;28;20154;-61
2023/06/27 04:09:33;;;;;;;3.60;2.55;;;;;;;;;;5024356;28;20137;-60
2023/06/27 04:11:59;;;;;;;3.50;1.60;;;;;;;;;;5023938;28;20528;-60
2023/06/27 04:14:27;;;;;;;3.78;2.15;;;;;;;;;;5023116;28;20434;-60
2023/06/27 04:16:53;;;;;;;5.43;1.83;;;;;;;;;;5018579;28;20112;-60
2023/06/27 04:19:20;;;;;;;6.53;1.88;;;;;;;;;;5028520;28;20195;-61
2023/06/27 04:21:46;;;;;;;2.40;1.65;;;;;;;;;;5021244;28;20495;-61
2023/06/27 04:24:12;;;;;;;4.80;2.10;;;;;;;;;;5025172;28;20128;-60
2023/06/27 04:26:38;;;;;;;3.67;1.80;;;;;;;;;;5028440;28;20037;-61
2023/06/27 04:29:04;;;;;;;3.88;2.22;;;;;;;;;;5023130;28;20036;-60
2023/06/27 04:31:30;;;;;;;4.22;2.03;;;;;;;;;;5025019;28;20144;-60
2023/06/27 04:33:59;;;;;;;4.50;1.95;;;;;;;;;;5020238;28;20049;-61
2023/06/27 04:36:26;;;;;;;7.10;2.17;;;;;;;;;;5026381;28;20091;-60
2023/06/27 04:38:52;;;;;;;6.20;1.95;;;;;;;;;;5034158;28;20537;-60
2023/06/27 04:41:18;;;;;;;4.68;2.25;;;;;;;;;;5020432;28;20611;-61
2023/06/27 04:43:44;;;;;;;7.93;2.17;;;;;;;;;;5013657;28;20100;-60
2023/06/27 04:46:10;;;;;;;4.15;2.10;;;;;;;;;;5020543;28;20827;-60
2023/06/27 04:48:36;;;;;;;13.30;2.92;;;;;;;;;;5038498;28;20038;-61
2023/06/27 04:51:03;;;;;;;4.72;2.15;;;;;;;;;;5022048;28;20037;-61
2023/06/27 04:53:30;;;;;;;4.88;2.00;;;;;;;;;;5026258;28;20112;-61
2023/06/27 04:55:56;;;;;;;5.45;2.05;;;;;;;;;;5021119;28;20118;-60
2023/06/27 04:58:22;;;;;;;5.82;2.17;;;;;;;;;;5025258;28;20468;-61
2023/06/27 05:00:48;;;;;;;4.22;1.77;;;;;;;;;;5022960;28;20045;-60
2023/06/27 05:03:15;;;;;;;4.95;1.50;;;;;;;;;;5019283;28;20488;-60
2023/06/27 05:05:41;;;;;;;4.60;1.90;;;;;;;;;;5020027;28;20037;-61
2023/06/27 05:08:07;;;;;;;6.68;1.80;;;;;;;;;;5020390;28;20057;-60
2023/06/27 05:10:34;;;;;;;4.63;1.77;;;;;;;;;;5020480;28;20045;-60
2023/06/27 05:13:00;;;;;;;3.15;1.60;;;;;;;;;;5034732;28;20797;-61
2023/06/27 05:15:27;;;;;;;2.78;1.67;;;;;;;;;;5018706;28;20076;-61
2023/06/27 05:17:54;;;;;;;3.78;2.33;;;;;;;;;;5021127;28;20120;-60
2023/06/27 05:20:21;;;;;;;4.50;2.28;;;;;;;;;;5034934;28;20531;-61
2023/06/27 05:22:48;;;;;;;2.60;1.38;;;;;;;;;;5020687;28;20049;-60
2023/06/27 05:25:14;;;;;;;7.28;2.13;;;;;;;;;;5015932;28;20056;-60
2023/06/27 05:27:40;;;;;;;3.33;1.83;;;;;;;;;;5012744;28;20049;-60
2023/06/27 05:30:06;;;;;;;3.88;2.33;;;;;;;;;;5039896;28;20479;-61
2023/06/27 05:32:33;;;;;;;7.95;2.15;;;;;;;;;;5009236;28;20076;-60
2023/06/27 05:34:59;;;;;;;5.30;1.83;;;;;;;;;;5023034;28;20041;-61
2023/06/27 05:37:25;;;;;;;9.35;2.38;;;;;;;;;;5025917;28;20713;-61
2023/06/27 05:39:51;;;;;;;2.97;1.70;;;;;;;;;;5027196;28;20576;-60
2023/06/27 05:42:17;;;;;;;4.88;2.08;;;;;;;;;;5021279;28;20045;-60
2023/06/27 05:44:43;;;;;;;4.50;1.75;;;;;;;;;;5020654;28;20060;-60
2023/06/27 05:47:09;;;;;;;4.72;1.90;;;;;;;;;;5017104;28;20068;-61
2023/06/27 05:49:35;;;;;;;4.65;1.73;;;;;;;;;;5025304;28;20545;-60
2023/06/27 05:52:01;;;;;;;4.25;1.70;;;;;;;;;;5015266;28;20048;-60
2023/06/27 05:54:27;;;;;;;4.65;1.90;;;;;;;;;;5027353;28;20125;-61
2023/06/27 05:56:54;;;;;;;2.55;1.42;;;;;;;;;;5017042;28;20124;-61
2023/06/27 05:59:20;;;;;;;4.25;2.08;;;;;;;;;;5025082;28;20049;-60
2023/06/27 06:01:46;;;;;;;2.63;1.55;;;;;;;;;;5029617;28;20132;-60
2023/06/27 06:04:12;;;;;;;4.00;1.40;;;;;;;;;;5026922;28;20535;-60
2023/06/27 06:06:39;;;;;;;4.68;1.98;;;;;;;;;;5018355;28;20045;-60
2023/06/27 06:09:05;;;;;;;8.82;1.67;;;;;;;;;;5023134;28;20334;-61
2023/06/27 06:11:34;;;;;;;3.85;1.45;;;;;;;;;;5026254;28;20044;-61
2023/06/27 06:14:09;;;;;;;4.28;1.23;;;;;;;;;;5026679;28;20041;-61
2023/06/27 06:16:36;;;;;;;7.55;1.88;;;;;;;;;;5017667;28;20034;-61
2023/06/27 06:19:03;;;;;;;2.58;1.58;;;;;;;;;;5021954;28;20380;-60
2023/06/27 06:21:29;;;;;;;5.95;1.58;;;;;;;;;;5032749;28;20115;-60
2023/06/27 06:23:55;;;;;;;4.10;1.77;;;;;;;;;;5021866;28;20041;-60
2023/06/27 06:26:21;;;;;;;3.50;1.52;;;20.70;74.30;;;;;;5021427;28;20073;-61
2023/06/27 06:28:47;;;;;;;2.90;1.30;;;19.20;81.30;;;;;;5020217;28;20042;-60
2023/06/27 06:31:20;;;;;;;7.07;1.73;;;19.10;81.30;;;;;;5025661;28;20468;-61
2023/06/27 06:33:48;;;;;;;4.25;1.52;;;19.20;81.30;;;;;;5023943;28;20048;-60
2023/06/27 06:36:14;;;;;;;4.13;1.25;;;19.20;80.70;;;;;;5022129;28;20357;-61
2023/06/27 06:38:40;;;;;;;5.65;1.80;;;19.30;81.30;;;;;;5024275;28;20092;-61
2023/06/27 06:41:06;;;;;;;3.35;1.55;;;19.30;81.30;;;;;;5028446;28;20553;-61
2023/06/27 06:43:32;;;;;;;3.92;1.45;;;19.40;81.70;;;;;;5024702;28;20146;-60
2023/06/27 06:45:58;;;;;;;4.80;1.30;;;19.40;81.30;;;;;;5022940;28;20037;-60
2023/06/27 06:48:24;;;;;;;3.15;1.10;;;19.40;81.20;;;;;;5020998;28;20052;-61
2023/06/27 06:50:51;;;;;;;4.97;1.75;;;19.50;81.20;;;;;;5022036;28;20420;-61
2023/06/27 06:53:18;;;;;;;7.28;1.60;;;19.50;81.10;;;;;;5020092;28;20041;-61
2023/06/27 06:55:44;;;;;;;3.05;1.30;;;19.50;81.00;;;;;;5018748;28;20049;-61
2023/06/27 06:58:10;;;;;;;3.80;1.30;;;19.50;81.00;;;;;;5023200;28;20052;-61
2023/06/27 07:00:36;;;;;;;6.07;1.38;;;19.50;80.90;;;;;;5025718;28;20049;-61
2023/06/27 07:03:08;;;;;;;4.55;1.58;;;19.50;80.80;;;;;;5027024;28;20188;-61
2023/06/27 07:05:35;;;;;;;3.67;1.25;;;;;;;;;;5018823;28;20548;-61
2023/06/27 07:08:03;;;;;;;3.50;1.48;;;;;;;;;;5022036;28;20128;-61
2023/06/27 07:10:30;;;;;;;4.10;1.80;;;;;;;;;;5023946;28;20400;-60
2023/06/27 07:12:57;;;;;;;4.50;1.58;;;;;;;;;;5027134;28;20888;-60
2023/06/27 07:15:23;;;;;;;2.65;1.20;;;;;;;;;;5023665;28;20683;-60
2023/06/27 07:17:53;;;;;;;2.15;1.40;;;;;;;;;;5019688;28;20041;-61
2023/06/27 07:20:20;;;;;;;4.75;1.55;;;;;;;;;;5026848;28;20048;-61
2023/06/27 07:22:52;;;;;;;4.40;1.70;;;19.60;80.80;;;;;;5022606;28;20506;-61
2023/06/27 07:25:18;;;;;;;9.20;1.73;;;19.90;80.40;;;;;;5014490;28;20045;-61
2023/06/27 07:27:45;;;;;;;2.85;1.33;;;19.90;80.90;;;;;;5021927;28;20407;-61
2023/06/27 07:30:12;;;;;;;7.28;1.27;;;;;;;;;;5022027;28;20033;-60
2023/06/27 07:32:38;;;;;;;4.10;1.50;;;;;;;;;;5024251;28;20115;-61
2023/06/27 07:35:04;;;;;;;3.08;1.42;;;;;;;;;;5041981;28;20072;-60
2023/06/27 07:37:31;;;;;;;5.00;1.58;;;;;;;;;;5021735;28;20069;-61
2023/06/27 07:40:00;;;;;;;3.08;1.40;;;;;;;;;;5023522;28;20094;-61
2023/06/27 07:42:26;;;;;;;6.25;1.92;;;;;;;;;;5023396;28;20042;-61
2023/06/27 07:44:53;;;;;;;6.82;1.50;;;;;;;;;;5022734;28;20090;-61
2023/06/27 07:47:19;;;;;;;3.25;1.25;;;;;;;;;;5022101;28;20459;-61
2023/06/27 07:49:45;;;;;;;3.95;2.05;;;;;;;;;;5029850;28;20286;-61
2023/06/27 07:52:11;;;;;;;7.25;1.45;;;;;;;;;;5025294;28;20034;-60
2023/06/27 07:54:38;;;;;;;3.83;1.40;;;;;;;;;;5026095;28;20576;-61
2023/06/27 07:57:04;;;;;;;4.75;1.25;;;;;;;;;;5025668;28;20103;-61
2023/06/27 07:59:30;;;;;;;4.55;1.55;;;;;;;;;;5026405;28;20033;-61
2023/06/27 08:01:57;;;;;;;4.15;1.45;;;;;;;;;;5028460;28;20109;-61
2023/06/27 08:04:23;;;;;;;4.53;1.48;;;;;;;;;;5026656;28;20395;-60
2023/06/27 08:06:49;;;;;;;3.78;1.40;;;20.00;80.30;;;;;;5029640;28;20056;-61
2023/06/27 08:09:15;;;;;;;4.40;1.48;;;20.50;80.00;;;;;;5034771;28;20041;-61
2023/06/27 08:11:41;;;;;;;4.10;1.40;;;20.50;80.00;;;;;;5028225;28;20056;-61
2023/06/27 08:14:07;;;;;;;5.55;1.75;;;20.50;80.00;;;;;;5031360;28;20080;-61
2023/06/27 08:16:33;;;;;;;3.65;1.60;;;20.60;80.00;;;;;;5024487;28;20042;-61
2023/06/27 08:19:00;;;;;;;2.50;1.15;;;20.60;80.00;;;;;;5027547;28;20037;-61
2023/06/27 08:21:26;;;;;;;2.20;1.15;;;;;;;;;;5011914;28;20184;-61
2023/06/27 08:23:52;;;;;;;3.40;1.55;;;;;;;;;;5027692;28;20523;-61
2023/06/27 08:26:19;;;;;;;1.90;1.10;;;;;;;;;;5023514;28;20088;-61
2023/06/27 08:28:45;;;;;;;6.22;1.50;;;;;;;;;;5024899;28;20033;-61
2023/06/27 08:31:12;;;;;;;2.88;1.42;;;;;;;;;;5024903;28;20171;-61
2023/06/27 08:33:39;;;;;;;6.10;1.48;;;;;;;;;;5027809;28;20041;-61
2023/06/27 08:36:05;;;;;;;5.50;1.40;;;;;;;;;;5030025;28;20116;-61
2023/06/27 08:38:32;;;;;;;3.67;1.55;;;;;;;;;;5029396;28;20379;-61
2023/06/27 08:40:58;;;;;;;3.13;1.40;;;;;;;;;;5029516;28;20120;-60
2023/06/27 08:43:25;;;;;;;4.72;1.60;;;;;;;;;;5028744;28;20045;-61
2023/06/27 08:45:52;;;;;;;5.15;1.30;;;;;;;;;;5029303;28;20133;-61
2023/06/27 08:48:18;;;;;;;4.90;1.30;;;;;;;;;;5029166;28;20192;-61
2023/06/27 08:50:45;;;;;;;3.38;1.27;;;;;;;;;;5029020;28;20041;-62
2023/06/27 08:53:17;;;;;;;4.38;1.67;;;20.70;80.10;;;;;;5027619;28;20403;-61
2023/06/27 08:56:04;;;;;;;2.58;1.20;;;21.40;79.20;;;;;;5025285;28;20038;-61
2023/06/27 08:58:40;;;;;;;3.08;1.42;;;21.40;79.00;;;;;;5024295;28;20061;-61
2023/06/27 09:01:07;;;;;;;4.05;1.33;;;21.40;79.00;;;;;;5025802;28;20479;-61
2023/06/27 09:03:34;;;;;;;2.78;1.40;;;21.40;78.90;;;;;;5041111;28;20049;-61
2023/06/27 09:06:03;;;;;;;4.53;1.40;;;21.50;78.90;;;;;;5027984;28;20140;-61
2023/06/27 09:08:29;;;;;;;2.25;1.15;;;21.50;78.70;;;;;;5030883;28;20187;-61
2023/06/27 09:10:56;;;;;;;5.10;1.33;;;21.50;78.80;;;;;;5017990;28;20040;-61
2023/06/27 09:13:23;;;;;;;5.43;1.77;;;;;;;;;;5021390;28;20297;-61
2023/06/27 09:15:49;;;;;;;3.92;1.40;;;;;;;;;;5028815;28;20411;-61
2023/06/27 09:18:15;;;;;;;2.60;1.52;;;21.50;78.40;;;;;;5031533;28;20041;-61
2023/06/27 09:20:41;;;;;;;3.58;1.45;;;21.60;78.00;;;;;;5025768;28;20099;-61
2023/06/27 09:23:07;;;;;;;1.67;1.08;;;21.70;77.90;;;;;;5019587;28;20283;-61
2023/06/27 09:25:33;;;;;;;3.30;1.27;;;21.70;77.80;;;;;;5019735;28;20107;-61
2023/06/27 09:28:16;;;;;;;3.65;1.27;;;21.80;77.70;;;;;;5022990;28;20155;-61
2023/06/27 09:30:55;;;;;;;5.53;1.75;;;21.80;77.40;;;;;;5020042;28;20038;-61
2023/06/27 09:33:22;;;;;;;4.68;1.63;;;21.80;77.30;;;;;;5028437;28;20098;-61
2023/06/27 09:35:48;;;;;;;3.17;1.50;;;21.80;77.30;;;;;;5027418;28;20441;-61
2023/06/27 09:38:14;;;;;;;3.05;1.20;;;21.90;77.40;;;;;;5025374;28;20056;-61
2023/06/27 09:40:41;;;;;;;3.25;1.60;;;21.90;77.30;;;;;;5019152;28;20037;-61
2023/06/27 09:43:07;;;;;;;3.67;1.33;;;22.00;77.30;;;;;;5028930;28;20490;-62
2023/06/27 09:45:33;;;;;;;2.60;1.23;;;;;;;;;;5031637;28;20055;-61
2023/06/27 09:48:00;;;;;;;3.78;1.85;;;;;;;;;;5028596;28;20440;-62
2023/06/27 09:50:31;;;;;;;6.10;1.70;;;22.00;77.20;;;;;;5029604;28;20049;-61
2023/06/27 09:52:59;;;;;;;11.50;1.70;;;22.20;77.00;;;;;;5026169;28;20033;-61
2023/06/27 09:55:25;;;;;;;6.35;1.58;;;;;;;;;;5029262;28;20495;-61
2023/06/27 09:57:52;;;;;;;6.88;1.60;;;;;;;;;;5033426;28;20041;-61
2023/06/27 10:00:22;;;;;;;3.63;1.60;;;;;;;;;;5029464;28;20072;-61
2023/06/27 10:02:52;;;;;;;2.67;1.50;;;22.20;76.90;;;;;;5025294;28;20041;-61
2023/06/27 10:05:19;;;;;;;5.57;1.38;;;;;;;;;;5022647;28;20456;-61
2023/06/27 10:07:46;;;;;;;4.65;1.35;;;;;;;;;;5029980;28;20068;-61
2023/06/27 10:10:12;;;;;;;3.67;1.33;;;;;;;;;;5030791;28;20483;-61
2023/06/27 10:12:39;;;;;;;3.70;1.70;;;;;;;;;;5030006;28;20495;-61
2023/06/27 10:15:08;;;;;;;3.97;1.77;;;22.30;76.60;;;;;;5027383;28;20104;-62
2023/06/27 10:17:35;;;;;;;5.55;1.73;;;22.60;76.30;;;;;;5028460;28;20060;-62
2023/06/27 10:20:03;;;;;;;3.33;1.60;;;22.60;76.20;;;;;;5029681;28;20239;-62
2023/06/27 10:22:31;;;;;;;2.67;1.40;;;22.60;76.10;;;;;;5020207;28;20069;-61
2023/06/27 10:25:04;;;;;;;2.33;1.33;;;22.70;76.00;;;;;;5025452;28;20042;-61
2023/06/27 10:27:34;;;;;;;3.88;1.73;;;22.70;76.50;;;;;;5022287;28;20279;-61
2023/06/27 10:30:23;;;;;;;6.05;1.58;;;22.80;75.80;;;;;;5027447;28;20041;-61
2023/06/27 10:32:49;;;;;;;5.60;1.65;;;22.80;75.70;;;;;;5023289;28;20033;-61
2023/06/27 10:35:26;;;;;;;5.00;1.33;;;22.90;75.80;;;;;;5025348;28;20084;-61
2023/06/27 10:38:09;;;;;;;3.38;1.27;;;23.00;75.70;;;;;;5026865;28;20128;-61
2023/06/27 10:40:59;;;;;;;5.38;1.75;;;23.00;75.50;;;;;;5042769;28;20045;-62
2023/06/27 10:43:37;;;;;;;4.32;1.17;;;23.00;75.40;;;;;;5025045;28;20045;-61
2023/06/27 10:46:11;;;;;;;6.10;1.58;;;23.10;75.40;;;;;;5023220;28;20040;-61
2023/06/27 10:48:47;;;;;;;5.93;1.50;;;;;;;;;;5024812;28;20431;-61
2023/06/27 10:51:19;;;;;;;4.68;1.45;;;;;;;;;;5023056;28;20550;-61
2023/06/27 10:54:05;;;;;;;4.47;2.00;;;;;;;;;;5025026;28;20068;-61
2023/06/27 10:56:33;;;;;;;3.80;1.40;;;;;;;;;;5026480;28;20041;-61
2023/06/27 10:58:59;;;;;;;2.80;1.40;;;;;;;;;;5025464;28;20428;-61
2023/06/27 11:01:29;;;;;;;5.28;1.88;;;;;;;;;;5027225;28;20119;-61
2023/06/27 11:03:58;;;;;;;2.88;1.27;;;;;;;;;;5027702;28;20060;-62
2023/06/27 11:06:39;;;;;;;1.90;1.27;;;;;;;;;;5025649;28;20067;-61
2023/06/27 11:09:05;;;;;;;4.10;1.63;;;;;;;;;;5025894;28;20046;-61
2023/06/27 11:11:33;;;;;;;5.78;1.52;;;;;;;;;;5020178;28;20120;-61
2023/06/27 11:14:06;;;;;;;4.15;1.33;;;;;;;;;;5025189;28;20057;-62
2023/06/27 11:16:34;;;;;;;3.80;1.38;;;;;;;;;;5023092;28;20041;-61
2023/06/27 11:19:00;;;;;;;4.25;1.63;;;;;;;;;;5034514;28;20112;-62
2023/06/27 11:21:26;;;;;;;3.28;1.50;;;;;;;;;;5020201;28;20049;-62
2023/06/27 11:23:59;;;;;;;6.43;1.70;;;;;;;;;;5026125;28;20461;-62
2023/06/27 11:26:26;;;;;;;3.30;1.73;;;;;;;;;;5020077;28;20153;-61
2023/06/27 11:28:52;;;;;;;3.90;1.35;;;;;;;;;;5026945;28;20038;-61
2023/06/27 11:31:19;;;;;;;3.38;1.20;;;;;;;;;;5021815;28;20388;-61
2023/06/27 11:33:45;;;;;;;2.05;1.20;;;;;;;;;;5025142;28;20109;-62
2023/06/27 11:36:11;;;;;;;3.42;1.35;;;;;;;;;;5023051;28;20763;-61
2023/06/27 11:38:37;;;;;;;13.23;2.05;;;;;;;;;;5040786;28;20092;-61
2023/06/27 11:41:05;;;;;;;5.90;1.98;;;;;;;;;;5029660;28;20033;-61
2023/06/27 11:43:31;;;;;;;3.83;1.20;;;;;;;;;;5032481;28;20084;-62
2023/06/27 11:45:59;;;;;;;7.05;2.00;;;;;;;;;;5031631;28;20033;-62
2023/06/27 11:48:27;;;;;;;3.00;1.35;;;;;;;;;;5029620;28;20053;-61
2023/06/27 11:50:54;;;;;;;2.95;1.20;;;;;;;;;;5031914;28;20041;-61
2023/06/27 11:53:20;;;;;;;5.07;1.50;;;;;;;;;;5030432;28;20219;-62
2023/06/27 11:55:47;;;;;;;5.75;1.50;;;;;;;;;;5029091;28;20033;-61
2023/06/27 11:58:13;;;;;;;1.48;0.90;;;;;;;;;;5030040;28;20171;-61
2023/06/27 12:00:40;;;;;;;3.20;1.40;;;;;;;;;;5028261;28;20091;-61
2023/06/27 12:03:06;;;;;;;6.65;1.40;;;;;;;;;;5030919;28;20416;-61
2023/06/27 12:05:33;;;;;;;4.85;1.63;;;;;;;;;;5032544;28;20683;-61
2023/06/27 12:08:02;;;;;;;4.80;1.67;;;;;;;;;;5029356;28;20538;-61
2023/06/27 12:10:29;;;;;;;2.80;1.30;;;;;;;;;;5026728;28;20623;-62
2023/06/27 12:12:55;;;;;;;3.95;1.30;;;;;;;;;;5024933;28;20116;-61
2023/06/27 12:15:21;;;;;;;6.82;1.63;;;;;;;;;;5033791;28;20463;-62
2023/06/27 12:18:01;;;;;;;2.97;1.30;;;;;;;;;;5028829;28;20198;-62
2023/06/27 12:20:39;;;;;;;2.50;1.58;;;;;;;;;;5025816;28;20168;-61
2023/06/27 12:23:06;;;;;;;4.78;1.33;;;;;;;;;;5024791;28;20922;-62
2023/06/27 12:25:32;;;;;;;6.78;1.48;;;;;;;;;;5026821;28;20068;-61
2023/06/27 12:27:58;;;;;;;6.88;1.85;;;;;;;;;;5023072;28;20057;-61
2023/06/27 12:30:24;;;;;;;4.20;1.20;;;;;;;;;;5029058;28;20044;-62
2023/06/27 12:32:50;;;;;;;3.55;1.45;;;;;;;;;;5027391;28;20395;-61
2023/06/27 12:35:17;;;;;;;5.18;1.63;;;23.10;75.30;;;;;;5032070;28;20057;-62
2023/06/27 12:37:47;;;;;;;4.53;1.40;;;;;;;;;;5028886;28;20646;-62
2023/06/27 12:40:16;;;;;;;3.30;1.38;;;;;;;;;;5023365;28;20037;-62
2023/06/27 12:42:43;;;;;;;4.57;1.40;;;;;;;;;;5025838;28;20053;-63
2023/06/27 12:45:12;;;;;;;2.50;1.52;;;;;;;;;;5027605;28;20299;-63
2023/06/27 12:47:43;;;;;;;6.10;1.70;;;;;;;;;;5026381;28;20475;-61
2023/06/27 12:50:13;;;;;;;6.25;2.13;;;;;;;;;;5026983;28;20096;-62
2023/06/27 12:52:40;;;;;;;5.55;2.15;;;;;;;;;;5031512;28;20037;-62
2023/06/27 12:55:07;;;;;;;4.68;2.03;;;;;;;;;;5025138;28;20464;-62
2023/06/27 12:57:33;;;;;;;5.03;2.20;;;;;;;;;;5039457;28;20596;-62
2023/06/27 13:00:02;;;;;;;6.60;2.13;;;;;;;;;;5028584;28;20037;-62
2023/06/27 13:02:28;;;;;;;8.13;2.25;;;;;;;;;;5029043;28;20052;-63
2023/06/27 13:04:54;;;;;;;3.85;1.40;;;;;;;;;;5029845;28;20053;-62
2023/06/27 13:07:20;;;;;;;4.45;1.63;;;;;;;;;;5027447;28;20420;-61
2023/06/27 13:09:47;;;;;;;4.40;1.70;;;;;;;;;;5027830;28;20026;-62
2023/06/27 13:12:13;;;;;;;5.20;2.38;;;;;;;;;;5024896;28;20030;-61
2023/06/27 13:14:39;;;;;;;5.82;1.55;;;;;;;;;;5025052;28;20048;-62
2023/06/27 13:17:05;;;;;;;6.30;1.88;;;;;;;;;;5031595;28;20113;-61
2023/06/27 13:19:32;;;;;;;6.15;1.77;;;;;;;;;;5027894;28;20049;-61
2023/06/27 13:21:59;;;;;;;3.42;2.00;;;;;;;;;;5028485;28;20080;-62
2023/06/27 13:24:25;;;;;;;3.33;1.70;;;;;;;;;;5021814;28;20045;-62
2023/06/27 13:26:52;;;;;;;5.10;1.77;;;;;;;;;;5025023;28;20042;-62
2023/06/27 13:29:18;;;;;;;3.53;1.58;;;;;;;;;;5025898;28;20041;-62
2023/06/27 13:31:44;;;;;;;4.63;1.60;;;;;;;;;;5023366;28;20033;-61
2023/06/27 13:34:10;;;;;;;4.00;1.63;;;;;;;;;;5027421;28;20053;-62
2023/06/27 13:36:36;;;;;;;3.67;1.63;;;;;;;;;;5026724;28;20049;-62
2023/06/27 13:39:03;;;;;;;4.10;1.70;;;;;;;;;;5027648;28;20041;-62
2023/06/27 13:41:30;;;;;;;3.15;1.38;;;;;;;;;;5020612;28;20049;-63
2023/06/27 13:43:56;;;;;;;4.78;1.70;;;;;;;;;;5026520;28;20041;-61
2023/06/27 13:46:22;;;;;;;5.20;1.90;;;;;;;;;;5027813;28;20068;-61
2023/06/27 13:48:49;;;;;;;3.47;1.65;;;;;;;;;;5027647;28;20029;-62
2023/06/27 13:51:15;;;;;;;7.15;2.55;;;;;;;;;;5028958;28;20121;-62
2023/06/27 13:53:41;;;;;;;6.53;2.90;;;;;;;;;;5029005;28;20550;-62
2023/06/27 13:56:07;;;;;;;4.97;2.20;;;;;;;;;;5029503;28;20033;-62
2023/06/27 13:58:33;;;;;;;6.57;2.33;;;;;;;;;;5029474;28;20124;-62
2023/06/27 14:01:00;;;;;;;3.38;1.92;;;;;;;;;;5023593;28;20519;-62
2023/06/27 14:03:27;;;;;;;5.60;2.13;;;;;;;;;;5027962;28;20132;-62
2023/06/27 14:05:53;;;;;;;4.32;1.65;;;;;;;;;;5024881;28;20068;-62
2023/06/27 14:08:21;;;;;;;3.20;1.80;;;;;;;;;;5023799;28;20140;-62
2023/06/27 14:10:47;;;;;;;4.15;1.85;;;;;;;;;;5029075;28;20072;-60
2023/06/27 14:13:13;;;;;;;5.63;1.52;;;;;;;;;;5025711;28;20041;-60
2023/06/27 14:15:40;;;;;;;3.60;2.08;;;;;;;;;;5026228;28;20037;-60
2023/06/27 14:18:06;;;;;;;4.38;1.92;;;;;;;;;;5024177;28;20052;-62
2023/06/27 14:20:32;;;;;;;11.80;2.38;;;;;;;;;;5028424;28;20459;-62
2023/06/27 14:22:59;;;;;;;3.88;1.70;;;;;;;;;;5024470;28;20121;-60